createdAt,value
2019-04-10T00:02:17.719Z,16.50
2019-04-10T00:04:45.289Z,16.73
2019-04-10T00:07:16.486Z,17.17
2019-04-10T00:09:41.340Z,16.83
2019-04-10T00:12:09.447Z,16.40
2019-04-10T00:14:36.701Z,17.27
2019-04-10T00:17:04.769Z,16.87
2019-04-10T00:19:32.868Z,19.67
2019-04-10T00:21:59.991Z,16.63
2019-04-10T00:24:26.911Z,16.60
2019-04-10T00:26:54.383Z,17.73
2019-04-10T00:29:22.391Z,16.97
2019-04-10T00:31:49.439Z,15.87
2019-04-10T00:34:16.379Z,17.57
2019-04-10T00:36:43.621Z,16.03
2019-04-10T00:39:11.051Z,16.57
2019-04-10T00:41:38.565Z,19.33
2019-04-10T00:44:05.783Z,15.97
2019-04-10T00:46:32.984Z,16.63
2019-04-10T00:49:00.640Z,16.00
2019-04-10T00:51:27.787Z,17.10
2019-04-10T00:53:54.723Z,15.83
2019-04-10T00:56:21.663Z,16.37
2019-04-10T00:58:48.591Z,15.17
2019-04-10T01:01:15.983Z,15.80
2019-04-10T01:03:43.634Z,15.77
2019-04-10T01:06:11.659Z,15.60
2019-04-10T01:08:40.549Z,16.57
2019-04-10T01:11:08.583Z,16.10
2019-04-10T01:13:36.605Z,15.37
2019-04-10T01:16:04.051Z,16.60
2019-04-10T01:18:31.072Z,18.73
2019-04-10T01:20:58.212Z,16.47
2019-04-10T01:23:25.153Z,15.97
2019-04-10T01:25:52.175Z,16.20
2019-04-10T01:28:19.163Z,15.67
2019-04-10T01:30:46.543Z,15.33
2019-04-10T01:33:14.478Z,15.73
2019-04-10T01:35:42.558Z,14.50
2019-04-10T01:38:09.959Z,15.50
2019-04-10T01:40:37.342Z,16.67
2019-04-10T01:43:09.901Z,15.67
2019-04-10T01:45:33.471Z,15.17
2019-04-10T01:48:01.586Z,15.63
2019-04-10T01:50:30.563Z,14.87
2019-04-10T01:52:57.547Z,15.10
2019-04-10T01:55:28.106Z,14.90
2019-04-10T01:57:54.665Z,15.07
2019-04-10T02:00:22.376Z,16.63
2019-04-10T02:02:51.822Z,14.83
2019-04-10T02:05:19.332Z,15.93
2019-04-10T02:07:59.325Z,16.47
2019-04-10T02:10:17.071Z,15.50
2019-04-10T02:12:45.134Z,15.53
2019-04-10T02:15:14.508Z,14.83
2019-04-10T02:17:41.791Z,15.17
2019-04-10T02:20:10.451Z,15.37
2019-04-10T02:22:38.443Z,14.80
2019-04-10T02:25:05.927Z,15.40
2019-04-10T02:27:34.240Z,14.50
2019-04-10T02:30:02.409Z,14.73
2019-04-10T02:32:29.550Z,15.57
2019-04-10T02:34:57.584Z,14.27
2019-04-10T02:37:27.047Z,14.30
2019-04-10T02:39:57.957Z,14.83
2019-04-10T02:42:24.656Z,16.37
2019-04-10T02:44:52.116Z,14.23
2019-04-10T02:47:21.115Z,13.93
2019-04-10T02:49:49.291Z,14.27
2019-04-10T02:52:16.781Z,13.47
2019-04-10T02:54:43.785Z,15.37
2019-04-10T02:57:11.342Z,13.80
2019-04-10T02:59:39.780Z,17.67
2019-04-10T03:02:08.355Z,14.37
2019-04-10T03:04:37.075Z,13.70
2019-04-10T03:07:04.525Z,14.33
2019-04-10T03:09:47.646Z,16.03
2019-04-10T03:12:00.430Z,15.70
2019-04-10T03:14:28.459Z,14.27
2019-04-10T03:16:55.599Z,13.60
2019-04-10T03:19:22.532Z,13.87
2019-04-10T03:21:49.460Z,15.87
2019-04-10T03:24:16.400Z,15.67
2019-04-10T03:26:43.343Z,15.23
2019-04-10T03:29:10.260Z,13.80
2019-04-10T03:31:38.946Z,14.00
2019-04-10T03:34:22.969Z,14.57
2019-04-10T03:36:51.739Z,14.07
2019-04-10T03:39:18.788Z,14.27
2019-04-10T03:41:45.803Z,13.83
2019-04-10T03:44:12.738Z,14.70
2019-04-10T03:46:40.145Z,15.93
2019-04-10T03:49:07.520Z,14.10
2019-04-10T03:51:34.761Z,15.33
2019-04-10T03:54:02.586Z,15.00
2019-04-10T03:56:29.756Z,15.37
2019-04-10T03:58:57.829Z,15.30
2019-04-10T04:01:25.094Z,14.40
2019-04-10T04:03:53.030Z,15.00
2019-04-10T04:06:21.603Z,15.80
2019-04-10T04:09:00.877Z,15.47
2019-04-10T04:11:17.845Z,16.07
2019-04-10T04:13:45.900Z,15.68
2019-04-10T04:16:13.175Z,14.97
2019-04-10T04:18:40.103Z,16.80
2019-04-10T04:21:07.681Z,15.32
2019-04-10T04:23:35.916Z,14.47
2019-04-10T04:26:03.447Z,17.77
2019-04-10T04:28:30.375Z,15.87
2019-04-10T04:30:57.303Z,14.83
2019-04-10T04:33:24.376Z,15.10
2019-04-10T04:35:51.403Z,15.93
2019-04-10T04:38:18.379Z,15.17
2019-04-10T04:40:46.144Z,16.07
2019-04-10T04:43:14.688Z,17.07
2019-04-10T04:45:42.238Z,15.10
2019-04-10T04:48:09.852Z,14.87
2019-04-10T04:50:38.138Z,16.37
2019-04-10T04:53:06.527Z,15.25
2019-04-10T04:55:33.703Z,20.00
2019-04-10T04:58:00.642Z,15.90
2019-04-10T05:00:27.834Z,16.00
2019-04-10T05:02:55.788Z,14.28
2019-04-10T05:05:23.059Z,14.60
2019-04-10T05:07:59.454Z,14.70
2019-04-10T05:10:18.887Z,14.35
2019-04-10T05:12:45.811Z,15.40
2019-04-10T05:15:13.416Z,14.18
2019-04-10T05:17:41.477Z,14.87
2019-04-10T05:20:09.371Z,15.20
2019-04-10T05:22:36.323Z,17.67
2019-04-10T05:25:03.502Z,13.87
2019-04-10T05:27:30.936Z,12.18
2019-04-10T05:29:57.979Z,16.15
2019-04-10T05:32:25.531Z,13.50
2019-04-10T05:34:52.571Z,16.07
2019-04-10T05:37:19.623Z,14.15
2019-04-10T05:39:50.604Z,12.45
2019-04-10T05:42:15.519Z,14.13
2019-04-10T05:44:42.469Z,12.37
2019-04-10T05:47:10.315Z,12.70
2019-04-10T05:49:37.647Z,14.53
2019-04-10T05:52:04.688Z,13.00
2019-04-10T05:54:31.615Z,11.90
2019-04-10T05:56:58.984Z,11.73
2019-04-10T05:59:26.160Z,14.00
2019-04-10T06:01:53.095Z,11.20
2019-04-10T06:04:20.873Z,10.80
2019-04-10T06:06:48.466Z,11.48
2019-04-10T06:09:16.334Z,11.20
2019-04-10T06:11:44.500Z,10.30
2019-04-10T06:14:13.500Z,11.18
2019-04-10T06:16:40.646Z,14.40
2019-04-10T06:19:07.627Z,9.33
2019-04-10T06:21:35.619Z,9.00
2019-04-10T06:24:03.615Z,9.33
2019-04-10T06:26:32.340Z,13.63
2019-04-10T06:28:59.527Z,12.13
2019-04-10T06:31:26.512Z,12.13
2019-04-10T06:33:53.460Z,11.07
2019-04-10T06:36:21.486Z,10.13
2019-04-10T06:38:48.544Z,9.97
2019-04-10T06:41:17.362Z,10.07
2019-04-10T06:43:45.198Z,9.10
2019-04-10T06:46:12.541Z,9.63
2019-04-10T06:48:40.352Z,12.43
2019-04-10T06:51:08.169Z,10.47
2019-04-10T06:53:35.588Z,13.47
2019-04-10T06:56:03.047Z,9.10
2019-04-10T06:58:29.991Z,8.83
2019-04-10T07:00:58.051Z,9.10
2019-04-10T07:03:43.661Z,8.47
2019-04-10T07:06:06.289Z,9.67
2019-04-10T07:08:26.031Z,10.47
2019-04-10T07:11:01.972Z,8.43
2019-04-10T07:13:23.907Z,8.40
2019-04-10T07:15:54.394Z,10.50
2019-04-10T07:18:21.850Z,9.03
2019-04-10T07:20:50.351Z,10.17
2019-04-10T07:23:22.448Z,13.70
2019-04-10T07:25:47.288Z,13.37
2019-04-10T07:28:15.431Z,8.97
2019-04-10T07:30:43.486Z,9.40
2019-04-10T07:33:14.593Z,9.93
2019-04-10T07:35:40.261Z,11.53
2019-04-10T07:38:07.796Z,10.43
2019-04-10T07:40:36.799Z,13.03
2019-04-10T07:43:04.222Z,11.73
2019-04-10T07:45:31.478Z,11.93
2019-04-10T07:47:58.408Z,10.87
2019-04-10T07:50:26.129Z,11.93
2019-04-10T07:52:54.133Z,10.87
2019-04-10T07:55:23.563Z,10.67
2019-04-10T07:57:51.478Z,11.00
2019-04-10T08:00:18.811Z,9.33
2019-04-10T08:02:46.845Z,11.23
2019-04-10T08:05:13.868Z,9.90
2019-04-10T08:07:40.892Z,11.10
2019-04-10T08:10:08.531Z,12.97
2019-04-10T08:12:42.432Z,9.97
2019-04-10T08:15:05.243Z,11.93
2019-04-10T08:17:32.497Z,10.07
2019-04-10T08:19:59.613Z,9.23
2019-04-10T08:22:26.556Z,10.70
2019-04-10T08:24:53.582Z,11.27
2019-04-10T08:27:21.364Z,9.23
2019-04-10T08:29:48.518Z,12.27
2019-04-10T08:32:16.070Z,10.33
2019-04-10T08:34:44.204Z,12.97
2019-04-10T08:37:12.306Z,10.70
2019-04-10T08:39:42.984Z,12.40
2019-04-10T08:42:08.565Z,11.47
2019-04-10T08:44:36.099Z,13.03
2019-04-10T08:47:03.474Z,11.23
2019-04-10T08:49:30.518Z,11.53
2019-04-10T08:51:57.859Z,13.37
2019-04-10T08:54:25.898Z,11.57
2019-04-10T08:56:53.091Z,11.40
2019-04-10T08:59:20.040Z,13.17
2019-04-10T09:01:47.276Z,13.80
2019-04-10T09:04:14.664Z,13.97
2019-04-10T09:06:41.827Z,11.37
2019-04-10T09:09:09.753Z,14.50
2019-04-10T09:11:37.564Z,12.27
2019-04-10T09:14:05.186Z,11.70
2019-04-10T09:16:32.371Z,10.97
2019-04-10T09:18:59.308Z,12.43
2019-04-10T09:21:26.300Z,12.70
2019-04-10T09:23:56.097Z,14.93
2019-04-10T09:26:22.535Z,12.27
2019-04-10T09:28:49.436Z,16.23
2019-04-10T09:31:16.371Z,14.17
2019-04-10T09:33:43.403Z,12.70
2019-04-10T09:36:11.172Z,14.07
2019-04-10T09:38:38.949Z,14.33
2019-04-10T09:41:06.095Z,12.57
2019-04-10T09:43:33.873Z,14.73
2019-04-10T09:46:02.176Z,12.47
2019-04-10T09:48:29.625Z,12.07
2019-04-10T09:50:58.117Z,15.83
2019-04-10T09:53:26.733Z,12.97
2019-04-10T09:55:54.556Z,16.45
2019-04-10T09:58:21.899Z,14.30
2019-04-10T10:00:49.192Z,13.10
2019-04-10T10:03:17.369Z,13.60
2019-04-10T10:05:44.890Z,15.90
2019-04-10T10:08:11.976Z,15.77
2019-04-10T10:13:07.563Z,15.87
2019-04-10T10:15:35.511Z,15.70
2019-04-10T10:18:03.352Z,18.70
2019-04-10T10:20:30.799Z,16.90
2019-04-10T10:22:57.834Z,16.23
2019-04-10T10:25:24.847Z,19.35
2019-04-10T10:27:51.827Z,14.70
2019-04-10T10:32:46.815Z,16.60
2019-04-10T10:35:14.668Z,16.93
2019-04-10T10:37:42.597Z,17.67
2019-04-10T10:40:11.823Z,19.07
2019-04-10T10:42:40.995Z,16.90
2019-04-10T10:45:10.321Z,17.40
2019-04-10T10:47:38.049Z,17.37
2019-04-10T10:50:06.586Z,19.67
2019-04-10T10:52:34.055Z,17.03
2019-04-10T10:55:01.117Z,19.50
2019-04-10T10:57:28.236Z,18.10
2019-04-10T10:59:55.177Z,17.57
2019-04-10T11:02:22.260Z,17.55
2019-04-10T11:04:49.621Z,16.30
2019-04-10T11:07:16.795Z,17.00
2019-04-10T11:09:44.450Z,18.00
2019-04-10T11:12:12.230Z,16.60
2019-04-10T11:14:39.596Z,15.43
2019-04-10T11:17:06.885Z,18.43
2019-04-10T11:19:35.390Z,18.70
2019-04-10T11:22:05.025Z,17.40
2019-04-10T11:24:32.982Z,19.20
2019-04-10T11:27:00.498Z,18.07
2019-04-10T11:29:28.692Z,18.63
2019-04-10T11:31:55.763Z,18.27
2019-04-10T11:34:22.986Z,16.60
2019-04-10T11:37:11.230Z,18.77
2019-04-10T11:39:25.500Z,15.73
2019-04-10T11:41:49.101Z,15.43
2019-04-10T11:44:19.950Z,14.87
2019-04-10T11:46:46.323Z,15.03
2019-04-10T11:49:15.446Z,15.37
2019-04-10T11:51:44.216Z,15.20
2019-04-10T11:54:14.617Z,17.57
2019-04-10T11:56:40.022Z,14.77
2019-04-10T11:59:09.786Z,14.37
2019-04-10T12:01:36.912Z,15.10
2019-04-10T12:04:08.608Z,14.53
2019-04-10T12:06:34.619Z,15.13
2019-04-10T12:09:29.151Z,15.25
2019-04-10T12:11:30.989Z,14.20
2019-04-10T12:13:58.943Z,14.10
2019-04-10T12:16:25.987Z,16.05
2019-04-10T12:18:53.219Z,14.50
2019-04-10T12:21:20.151Z,16.87
2019-04-10T12:23:47.393Z,15.53
2019-04-10T12:26:14.531Z,13.35
2019-04-10T12:28:42.327Z,13.17
2019-04-10T12:31:10.043Z,15.93
2019-04-10T12:33:38.015Z,15.47
2019-04-10T12:36:08.255Z,14.67
2019-04-10T12:38:36.001Z,13.60
2019-04-10T12:41:03.403Z,13.10
2019-04-10T12:45:56.950Z,13.50
2019-04-10T12:50:50.468Z,14.00
2019-04-10T12:53:17.408Z,14.20
2019-04-10T12:55:44.340Z,13.30
2019-04-10T12:58:15.757Z,19.07
2019-04-10T13:00:41.139Z,15.10
2019-04-10T13:03:09.260Z,13.60
2019-04-10T13:05:36.196Z,13.05
2019-04-10T13:17:53.196Z,13.00
2019-04-10T13:20:20.144Z,12.80
2019-04-10T13:22:47.067Z,13.63
2019-04-10T13:25:14.455Z,13.20
2019-04-10T13:30:14.216Z,13.47
2019-04-10T13:37:35.855Z,14.15
2019-04-10T13:40:04.052Z,13.10
2019-04-10T13:42:31.666Z,15.20
2019-04-10T13:44:59.258Z,13.05
2019-04-10T13:47:29.038Z,17.00
2019-04-10T13:52:22.107Z,14.50
2019-04-10T13:54:49.065Z,14.35
2019-04-10T14:04:40.912Z,14.17
2019-04-10T14:09:43.278Z,13.40
2019-04-10T14:12:04.126Z,12.80
2019-04-10T14:14:31.155Z,12.27
2019-04-10T14:16:59.261Z,11.30
2019-04-10T14:19:28.311Z,12.63
2019-04-10T14:21:55.723Z,11.93
2019-04-10T14:24:24.841Z,12.57
2019-04-10T14:27:10.354Z,12.43
2019-04-10T14:29:38.386Z,12.13
2019-04-10T14:32:08.919Z,11.97
2019-04-10T14:34:36.663Z,11.27
2019-04-10T14:37:05.488Z,11.27
2019-04-10T14:39:33.496Z,12.17
2019-04-10T14:42:00.768Z,11.77
2019-04-10T14:44:28.515Z,13.17
2019-04-10T14:46:56.032Z,12.57
2019-04-10T14:49:22.988Z,12.40
2019-04-10T14:51:49.903Z,13.63
2019-04-10T14:54:17.123Z,15.37
2019-04-10T14:56:44.260Z,12.83
2019-04-10T14:59:11.533Z,13.47
2019-04-10T15:01:38.552Z,11.57
2019-04-10T15:04:05.651Z,11.93
2019-04-10T15:06:33.370Z,11.43
2019-04-10T15:09:00.884Z,11.67
2019-04-10T15:11:28.882Z,13.60
2019-04-10T15:13:57.137Z,11.73
2019-04-10T15:16:25.104Z,12.40
2019-04-10T15:18:52.559Z,12.77
2019-04-10T15:21:20.724Z,14.03
2019-04-10T15:23:48.204Z,12.37
2019-04-10T15:26:15.550Z,11.90
2019-04-10T15:28:43.568Z,11.83
2019-04-10T15:31:11.011Z,11.77
2019-04-10T15:33:39.400Z,12.27
2019-04-10T15:36:07.443Z,11.37
2019-04-10T15:38:34.439Z,11.60
2019-04-10T15:41:01.459Z,11.60
2019-04-10T15:43:29.423Z,12.93
2019-04-10T15:45:56.847Z,11.60
2019-04-10T15:48:25.127Z,12.97
2019-04-10T15:50:52.275Z,13.40
2019-04-10T15:53:20.211Z,11.13
2019-04-10T15:55:47.825Z,12.70
2019-04-10T15:58:15.037Z,11.10
2019-04-10T16:00:42.094Z,12.00
2019-04-10T16:03:09.285Z,12.50
2019-04-10T16:05:36.276Z,15.13
2019-04-10T16:08:03.642Z,11.40
2019-04-10T16:10:53.005Z,11.40
2019-04-10T16:13:32.583Z,11.40
2019-04-10T16:16:07.272Z,11.13
2019-04-10T16:18:35.135Z,11.00
2019-04-10T16:21:02.209Z,11.67
2019-04-10T16:23:51.883Z,10.33
2019-04-10T16:26:19.015Z,10.63
2019-04-10T16:28:47.206Z,10.43
2019-04-10T16:31:15.158Z,10.07
2019-04-10T16:33:43.157Z,11.00
2019-04-10T16:36:10.828Z,13.63
2019-04-10T16:38:38.535Z,12.60
2019-04-10T16:41:05.723Z,10.80
2019-04-10T16:43:32.841Z,11.40
2019-04-10T16:45:59.799Z,14.77
2019-04-10T16:48:28.137Z,10.93
2019-04-10T16:50:56.183Z,13.80
2019-04-10T16:53:24.000Z,12.73
2019-04-10T16:55:51.536Z,12.53
2019-04-10T16:58:18.496Z,12.23
2019-04-10T17:00:45.511Z,11.37
2019-04-10T17:03:13.541Z,12.90
2019-04-10T17:05:41.908Z,11.93
2019-04-10T17:08:09.778Z,11.60
2019-04-10T17:10:36.972Z,11.17
2019-04-10T17:13:04.506Z,11.20
2019-04-10T17:15:32.250Z,11.17
2019-04-10T17:17:59.645Z,11.50
2019-04-10T17:20:27.184Z,12.10
2019-04-10T17:22:54.354Z,11.80
2019-04-10T17:25:22.157Z,11.83
2019-04-10T17:27:50.044Z,11.73
2019-04-10T17:30:19.908Z,14.73
2019-04-10T17:32:48.669Z,12.50
2019-04-10T17:35:15.971Z,13.67
2019-04-10T17:37:43.487Z,11.60
2019-04-10T17:40:25.419Z,11.53
2019-04-10T17:42:44.310Z,12.93
2019-04-10T17:45:12.171Z,10.17
2019-04-10T17:47:39.282Z,9.53
2019-04-10T17:50:09.740Z,10.17
2019-04-10T17:52:37.993Z,11.33
2019-04-10T17:55:07.235Z,10.00
2019-04-10T17:57:38.915Z,9.07
2019-04-10T18:00:11.268Z,19.70
2019-04-10T18:02:38.934Z,9.93
2019-04-10T18:05:06.507Z,12.55
2019-04-10T18:07:34.309Z,10.13
2019-04-10T18:10:02.464Z,9.10
2019-04-10T18:12:30.039Z,12.73
2019-04-10T18:14:57.640Z,10.87
2019-04-10T18:17:24.999Z,9.37
2019-04-10T18:19:52.455Z,8.60
2019-04-10T18:22:20.650Z,10.65
2019-04-10T18:24:47.999Z,11.30
2019-04-10T18:27:14.944Z,9.37
2019-04-10T18:29:41.899Z,9.83
2019-04-10T18:32:09.716Z,8.90
2019-04-10T18:34:38.198Z,8.53
2019-04-10T18:37:05.528Z,9.20
2019-04-10T18:39:32.843Z,8.50
2019-04-10T18:42:01.290Z,9.83
2019-04-10T18:44:29.037Z,9.50
2019-04-10T18:46:56.422Z,9.40
2019-04-10T18:49:23.851Z,9.33
2019-04-10T18:51:50.965Z,11.60
2019-04-10T18:54:18.622Z,12.57
2019-04-10T18:56:45.656Z,10.67
2019-04-10T18:59:22.580Z,8.03
2019-04-10T19:02:18.329Z,7.50
2019-04-10T19:04:49.849Z,10.47
2019-04-10T19:07:17.469Z,7.73
2019-04-10T19:09:44.966Z,8.90
2019-04-10T19:12:12.732Z,8.33
2019-04-10T19:14:40.605Z,10.13
2019-04-10T19:17:09.116Z,10.43
2019-04-10T19:19:40.116Z,9.93
2019-04-10T19:22:06.560Z,10.70
2019-04-10T19:24:34.066Z,8.67
2019-04-10T19:27:02.166Z,13.30
2019-04-10T19:29:29.686Z,8.57
2019-04-10T19:32:01.499Z,10.80
2019-04-10T19:34:29.523Z,8.70
2019-04-10T19:36:57.035Z,8.43
2019-04-10T19:39:24.444Z,10.23
2019-04-10T19:41:51.529Z,11.83
2019-04-10T19:44:19.088Z,7.97
2019-04-10T19:46:46.120Z,8.17
2019-04-10T19:49:14.250Z,9.40
2019-04-10T19:51:42.648Z,7.37
2019-04-10T19:54:10.943Z,9.73
2019-04-10T19:56:38.459Z,8.97
2019-04-10T19:59:06.322Z,7.60
2019-04-10T20:01:34.071Z,7.43
2019-04-10T20:04:02.037Z,6.83
2019-04-10T20:06:30.115Z,8.53
2019-04-10T20:08:57.882Z,7.63
2019-04-10T20:11:35.663Z,6.37
2019-04-10T20:13:54.700Z,9.53
2019-04-10T20:16:22.606Z,6.53
2019-04-10T20:18:50.804Z,7.80
2019-04-10T20:21:17.951Z,8.00
2019-04-10T20:23:45.983Z,8.30
2019-04-10T20:26:13.030Z,6.70
2019-04-10T20:28:40.742Z,5.87
2019-04-10T20:31:13.210Z,7.43
2019-04-10T20:33:41.010Z,9.13
2019-04-10T20:36:08.899Z,9.87
2019-04-10T20:38:36.694Z,9.07
2019-04-10T20:41:04.602Z,7.93
2019-04-10T20:43:32.702Z,5.73
2019-04-10T20:46:00.709Z,7.47
2019-04-10T20:48:28.647Z,7.70
2019-04-10T20:50:57.223Z,7.53
2019-04-10T20:53:24.539Z,7.60
2019-04-10T20:55:52.436Z,6.90
2019-04-10T20:58:20.206Z,9.27
2019-04-10T21:00:47.359Z,6.53
2019-04-10T21:03:15.451Z,5.93
2019-04-10T21:05:42.839Z,5.50
2019-04-10T21:08:09.763Z,6.80
2019-04-10T21:10:36.707Z,6.40
2019-04-10T21:13:04.526Z,7.93
2019-04-10T21:15:31.899Z,5.30
2019-04-10T21:17:59.163Z,6.45
2019-04-10T21:20:27.243Z,5.17
2019-04-10T21:22:55.579Z,6.33
2019-04-10T21:25:23.202Z,5.40
2019-04-10T21:27:52.009Z,6.33
2019-04-10T21:30:28.479Z,6.83
2019-04-10T21:33:16.324Z,5.33
2019-04-10T21:35:43.748Z,7.77
2019-04-10T21:38:11.026Z,5.77
2019-04-10T21:40:38.998Z,6.17
2019-04-10T21:43:06.128Z,5.87
2019-04-10T21:45:33.620Z,5.67
2019-04-10T21:48:02.130Z,7.83
2019-04-10T21:50:29.392Z,5.97
2019-04-10T21:52:57.346Z,5.80
2019-04-10T21:55:24.764Z,6.73
2019-04-10T21:57:51.702Z,7.83
2019-04-10T22:00:24.468Z,5.80
2019-04-10T22:02:52.020Z,6.07
2019-04-10T22:05:19.805Z,8.20
2019-04-10T22:08:00.850Z,7.77
2019-04-10T22:10:36.350Z,8.80
2019-04-10T22:13:03.819Z,5.10
2019-04-10T22:15:42.942Z,5.67
2019-04-10T22:18:10.078Z,6.17
2019-04-10T22:20:37.107Z,7.33
2019-04-10T22:23:04.198Z,7.40
2019-04-10T22:25:31.886Z,7.20
2019-04-10T22:28:00.433Z,6.40
2019-04-10T22:30:29.513Z,6.87
2019-04-10T22:32:57.657Z,7.30
2019-04-10T22:35:25.814Z,6.20
2019-04-10T22:37:52.944Z,7.07
2019-04-10T22:40:20.075Z,8.63
2019-04-10T22:42:48.275Z,7.43
2019-04-10T22:45:27.957Z,7.40
2019-04-10T22:47:56.346Z,7.90
2019-04-10T22:50:24.435Z,6.12
2019-04-10T22:52:52.660Z,6.43
2019-04-10T22:55:20.199Z,5.77
2019-04-10T22:57:47.499Z,6.93
2019-04-10T23:00:22.192Z,7.63
2019-04-10T23:02:49.315Z,7.17
2019-04-10T23:05:16.359Z,6.70
2019-04-10T23:07:43.318Z,7.85
2019-04-10T23:10:12.882Z,6.62
2019-04-10T23:12:50.418Z,7.90
2019-04-10T23:15:11.341Z,6.45
2019-04-10T23:17:39.003Z,6.25
2019-04-10T23:20:07.160Z,7.67
2019-04-10T23:22:34.195Z,7.10
2019-04-10T23:25:02.471Z,7.50
2019-04-10T23:27:30.171Z,7.05
2019-04-10T23:29:57.320Z,6.17
2019-04-10T23:32:24.244Z,7.10
2019-04-10T23:34:51.171Z,8.05
2019-04-10T23:42:13.491Z,8.13
2019-04-10T23:44:40.795Z,7.50
2019-04-10T23:47:07.880Z,6.30
2019-04-10T23:49:35.331Z,8.58
2019-04-10T23:52:03.323Z,6.75
2019-04-10T23:54:30.325Z,7.65
2019-04-10T23:56:57.263Z,7.83
2019-04-10T23:59:24.191Z,9.30
